createdAt,value
2023-08-29T00:01:19.324Z,7.60
2023-08-29T00:03:47.179Z,7.80
2023-08-29T00:06:14.457Z,7.57
2023-08-29T00:08:41.690Z,8.13
2023-08-29T00:11:08.916Z,7.00
2023-08-29T00:13:36.139Z,8.23
2023-08-29T00:16:03.941Z,7.23
2023-08-29T00:18:31.221Z,7.70
2023-08-29T00:20:58.703Z,7.00
2023-08-29T00:23:25.868Z,6.23
2023-08-29T00:25:53.207Z,5.47
2023-08-29T00:28:20.591Z,5.33
2023-08-29T00:30:48.459Z,5.73
2023-08-29T00:33:15.784Z,5.13
2023-08-29T00:35:43.008Z,4.77
2023-08-29T00:38:12.043Z,4.40
2023-08-29T00:40:39.283Z,4.47
2023-08-29T00:43:06.613Z,4.50
2023-08-29T00:45:35.318Z,4.33
2023-08-29T00:48:03.560Z,4.93
2023-08-29T00:50:32.079Z,4.60
2023-08-29T00:53:09.999Z,4.30
2023-08-29T00:55:37.753Z,5.40
2023-08-29T00:58:05.734Z,5.07
2023-08-29T01:00:33.707Z,4.63
2023-08-29T01:03:02.082Z,4.93
2023-08-29T01:05:29.792Z,5.10
2023-08-29T01:07:59.786Z,4.53
2023-08-29T01:10:33.220Z,4.77
2023-08-29T01:13:05.771Z,4.43
2023-08-29T01:15:34.034Z,5.80
2023-08-29T01:18:04.460Z,4.27
2023-08-29T01:20:32.760Z,5.70
2023-08-29T01:25:36.134Z,4.17
2023-08-29T01:28:04.231Z,4.37
2023-08-29T01:30:32.165Z,4.97
2023-08-29T01:32:59.780Z,4.73
2023-08-29T01:35:27.891Z,6.00
2023-08-29T01:37:55.086Z,5.10
2023-08-29T01:40:22.367Z,5.17
2023-08-29T01:42:49.569Z,4.93
2023-08-29T01:45:16.900Z,6.00
2023-08-29T01:47:44.184Z,6.10
2023-08-29T01:50:13.442Z,5.60
2023-08-29T01:52:42.278Z,6.00
2023-08-29T01:55:09.659Z,5.90
2023-08-29T01:57:37.154Z,7.60
2023-08-29T02:00:05.597Z,9.23
2023-08-29T02:02:53.083Z,8.37
2023-08-29T02:05:20.388Z,9.60
2023-08-29T02:07:47.686Z,8.80
2023-08-29T02:10:14.917Z,10.33
2023-08-29T02:12:42.143Z,10.30
2023-08-29T02:15:10.167Z,8.20
2023-08-29T02:17:38.022Z,9.57
2023-08-29T02:20:09.404Z,9.07
2023-08-29T02:22:37.377Z,9.13
2023-08-29T02:25:05.970Z,9.17
2023-08-29T02:27:51.720Z,9.37
2023-08-29T02:30:19.662Z,13.67
2023-08-29T02:32:48.491Z,9.53
2023-08-29T02:35:15.714Z,9.63
2023-08-29T02:37:43.028Z,10.17
2023-08-29T02:40:11.093Z,8.80
2023-08-29T02:42:38.391Z,9.57
2023-08-29T02:45:05.885Z,10.30
2023-08-29T02:47:33.087Z,9.23
2023-08-29T02:50:00.340Z,9.67
2023-08-29T02:52:27.167Z,9.57
2023-08-29T02:54:54.099Z,9.03
2023-08-29T02:57:20.918Z,9.27
2023-08-29T02:59:47.936Z,8.57
2023-08-29T03:02:14.887Z,9.80
2023-08-29T03:04:43.298Z,9.93
2023-08-29T03:07:10.650Z,9.00
2023-08-29T03:09:37.819Z,8.30
2023-08-29T03:12:06.376Z,8.80
2023-08-29T03:14:33.431Z,8.57
2023-08-29T03:17:00.751Z,13.00
2023-08-29T03:19:28.106Z,10.27
2023-08-29T03:21:54.964Z,9.30
2023-08-29T03:24:21.933Z,8.30
2023-08-29T03:26:48.731Z,9.50
2023-08-29T03:29:15.550Z,10.77
2023-08-29T03:31:43.357Z,11.07
2023-08-29T03:34:10.186Z,9.20
2023-08-29T03:36:36.992Z,9.93
2023-08-29T03:39:04.240Z,11.20
2023-08-29T03:41:31.168Z,10.80
2023-08-29T03:43:58.027Z,10.63
2023-08-29T03:46:24.959Z,9.53
2023-08-29T03:48:52.460Z,11.70
2023-08-29T03:51:20.118Z,10.20
2023-08-29T03:53:47.016Z,10.60
2023-08-29T03:56:14.346Z,8.67
2023-08-29T03:58:42.075Z,11.37
2023-08-29T04:01:09.198Z,12.07
2023-08-29T04:03:36.527Z,11.07
2023-08-29T04:06:04.506Z,10.83
2023-08-29T04:08:31.580Z,9.83
2023-08-29T04:10:58.359Z,11.97
2023-08-29T04:13:25.628Z,11.50
2023-08-29T04:15:52.516Z,10.60
2023-08-29T04:18:20.654Z,10.87
2023-08-29T04:20:47.476Z,10.67
2023-08-29T04:23:14.386Z,22.47
2023-08-29T04:25:41.274Z,9.20
2023-08-29T04:28:08.443Z,10.17
2023-08-29T04:30:36.610Z,10.47
2023-08-29T04:33:04.324Z,8.83
2023-08-29T04:35:31.531Z,8.40
2023-08-29T04:37:58.510Z,8.70
2023-08-29T04:40:25.786Z,7.37
2023-08-29T04:42:52.991Z,8.03
2023-08-29T04:45:20.742Z,8.00
2023-08-29T04:47:48.535Z,7.37
2023-08-29T04:50:15.855Z,9.43
2023-08-29T04:52:43.598Z,8.63
2023-08-29T04:55:10.671Z,11.13
2023-08-29T04:57:37.705Z,7.50
2023-08-29T05:00:07.161Z,5.47
2023-08-29T05:02:35.308Z,6.73
2023-08-29T05:05:02.960Z,6.47
2023-08-29T05:07:30.221Z,5.87
2023-08-29T05:09:58.509Z,9.00
2023-08-29T05:12:27.246Z,7.23
2023-08-29T05:14:57.268Z,6.80
2023-08-29T05:17:24.520Z,6.80
2023-08-29T05:19:52.959Z,7.73
2023-08-29T05:22:20.266Z,7.23
2023-08-29T05:24:47.636Z,7.80
2023-08-29T05:27:15.680Z,7.83
2023-08-29T05:29:43.000Z,7.53
2023-08-29T05:32:10.226Z,8.07
2023-08-29T05:34:37.597Z,8.70
2023-08-29T05:37:05.002Z,9.00
2023-08-29T05:39:32.304Z,9.43
2023-08-29T05:41:59.616Z,10.80
2023-08-29T05:44:26.940Z,10.27
2023-08-29T05:46:54.325Z,9.07
2023-08-29T05:49:21.678Z,7.47
2023-08-29T05:51:50.650Z,6.80
2023-08-29T05:54:19.108Z,5.17
2023-08-29T05:56:46.307Z,4.70
2023-08-29T05:59:13.598Z,3.83
2023-08-29T06:01:40.858Z,4.87
2023-08-29T06:04:08.430Z,4.47
2023-08-29T06:06:36.863Z,4.67
2023-08-29T06:09:04.264Z,3.50
2023-08-29T06:11:31.522Z,3.03
2023-08-29T06:13:58.742Z,2.93
2023-08-29T06:16:26.117Z,3.17
2023-08-29T06:18:53.294Z,3.20
2023-08-29T06:21:21.897Z,3.83
2023-08-29T06:23:49.221Z,2.47
2023-08-29T06:26:17.199Z,2.77
2023-08-29T06:28:44.477Z,2.30
2023-08-29T06:31:11.766Z,1.97
2023-08-29T06:33:40.587Z,2.00
2023-08-29T06:36:08.115Z,2.13
2023-08-29T06:38:36.136Z,2.70
2023-08-29T06:41:04.306Z,2.77
2023-08-29T06:43:31.928Z,2.00
2023-08-29T06:45:59.325Z,2.07
2023-08-29T06:48:26.614Z,2.00
2023-08-29T06:50:54.242Z,2.07
2023-08-29T06:53:21.522Z,1.80
2023-08-29T06:55:48.756Z,1.70
2023-08-29T06:58:16.053Z,2.00
2023-08-29T07:00:43.388Z,2.17
2023-08-29T07:03:10.710Z,2.00
2023-08-29T07:05:37.954Z,2.07
2023-08-29T07:08:06.072Z,2.10
2023-08-29T07:10:33.480Z,2.17
2023-08-29T07:13:00.789Z,2.70
2023-08-29T07:15:28.058Z,2.73
2023-08-29T07:17:55.170Z,3.33
2023-08-29T07:20:22.337Z,2.53
2023-08-29T07:22:49.690Z,2.83
2023-08-29T07:25:19.103Z,2.70
2023-08-29T07:27:46.401Z,3.50
2023-08-29T07:30:16.469Z,2.47
2023-08-29T07:32:44.298Z,2.60
2023-08-29T07:35:11.203Z,2.40
2023-08-29T07:37:38.411Z,3.97
2023-08-29T07:40:06.254Z,1.93
2023-08-29T07:42:33.135Z,2.33
2023-08-29T07:45:00.656Z,1.97
2023-08-29T07:47:27.499Z,2.50
2023-08-29T07:49:54.367Z,2.43
2023-08-29T07:52:21.154Z,1.90
2023-08-29T07:54:47.982Z,2.17
2023-08-29T07:57:14.761Z,1.90
2023-08-29T07:59:41.624Z,2.00
2023-08-29T08:02:08.860Z,2.20
2023-08-29T08:04:35.756Z,2.27
2023-08-29T08:07:02.583Z,1.93
2023-08-29T08:09:29.813Z,2.40
2023-08-29T08:12:15.505Z,2.37
2023-08-29T08:14:42.729Z,2.20
2023-08-29T08:17:09.618Z,4.10
2023-08-29T08:19:36.432Z,2.13
2023-08-29T08:24:48.024Z,1.90
2023-08-29T08:27:14.890Z,1.90
2023-08-29T08:29:43.303Z,1.63
2023-08-29T08:32:10.385Z,1.63
2023-08-29T08:34:37.218Z,2.07
2023-08-29T08:37:04.231Z,2.27
2023-08-29T08:39:32.916Z,1.60
2023-08-29T08:41:59.733Z,2.53
2023-08-29T08:44:26.640Z,1.80
2023-08-29T08:46:54.416Z,1.70
2023-08-29T08:49:21.597Z,2.17
2023-08-29T08:51:51.504Z,2.00
2023-08-29T08:54:18.530Z,1.70
2023-08-29T08:56:46.070Z,1.63
2023-08-29T08:59:13.497Z,1.57
2023-08-29T09:01:40.868Z,2.27
2023-08-29T09:04:08.441Z,1.47
2023-08-29T09:06:36.686Z,2.30
2023-08-29T09:09:20.319Z,1.80
2023-08-29T09:11:54.002Z,2.20
2023-08-29T09:14:21.871Z,2.37
2023-08-29T09:16:53.489Z,1.80
2023-08-29T09:22:05.989Z,3.30
2023-08-29T09:24:35.034Z,2.00
2023-08-29T09:27:11.554Z,2.27
2023-08-29T09:29:39.096Z,1.90
2023-08-29T09:32:16.068Z,2.07
2023-08-29T09:34:43.906Z,1.70
2023-08-29T09:37:13.250Z,2.03
2023-08-29T09:39:40.564Z,1.60
2023-08-29T09:42:08.732Z,1.60
2023-08-29T09:44:39.909Z,1.53
2023-08-29T09:47:07.569Z,2.27
2023-08-29T09:49:44.855Z,1.87
2023-08-29T09:52:12.204Z,1.57
2023-08-29T09:54:46.281Z,1.47
2023-08-29T09:57:15.812Z,1.47
2023-08-29T09:59:44.142Z,1.50
2023-08-29T10:02:15.182Z,1.40
2023-08-29T10:04:53.012Z,1.20
2023-08-29T10:07:35.273Z,1.23
2023-08-29T10:10:02.882Z,1.83
2023-08-29T10:12:30.373Z,1.60
2023-08-29T10:14:57.937Z,1.37
2023-08-29T10:17:32.118Z,1.47
2023-08-29T10:20:10.230Z,2.10
2023-08-29T10:22:39.868Z,2.07
2023-08-29T10:25:07.349Z,2.30
2023-08-29T10:27:35.646Z,1.63
2023-08-29T10:30:03.837Z,1.37
2023-08-29T10:32:31.641Z,1.23
2023-08-29T10:34:59.133Z,1.00
2023-08-29T10:37:27.292Z,1.90
2023-08-29T10:39:54.888Z,1.10
2023-08-29T10:42:22.151Z,1.17
2023-08-29T10:44:50.275Z,0.90
2023-08-29T10:47:32.075Z,1.20
2023-08-29T10:50:00.634Z,2.60
2023-08-29T10:52:41.569Z,1.27
2023-08-29T10:55:29.373Z,1.10
2023-08-29T10:58:03.058Z,1.20
2023-08-29T11:00:40.638Z,1.03
2023-08-29T11:03:07.601Z,0.93
2023-08-29T11:05:39.652Z,1.30
2023-08-29T11:08:24.976Z,1.30
2023-08-29T11:11:10.829Z,1.00
2023-08-29T11:13:54.357Z,1.03
2023-08-29T11:16:21.332Z,1.00
2023-08-29T11:18:48.502Z,0.80
2023-08-29T11:21:18.837Z,1.20
2023-08-29T11:23:46.251Z,2.30
2023-08-29T11:26:13.573Z,1.10
2023-08-29T11:28:46.128Z,1.30
2023-08-29T11:31:13.424Z,1.10
2023-08-29T11:33:40.370Z,1.10
2023-08-29T11:36:08.571Z,0.80
2023-08-29T11:38:35.942Z,1.07
2023-08-29T11:41:12.412Z,0.97
2023-08-29T11:44:27.738Z,0.90
2023-08-29T11:46:41.410Z,0.90
2023-08-29T11:49:15.530Z,2.73
2023-08-29T11:51:42.940Z,1.20
2023-08-29T11:54:47.297Z,1.00
2023-08-29T11:57:14.948Z,1.20
2023-08-29T11:59:43.307Z,1.50
2023-08-29T12:02:17.682Z,1.50
2023-08-29T12:04:47.044Z,1.60
2023-08-29T12:07:18.019Z,2.17
2023-08-29T12:09:47.438Z,1.80
2023-08-29T12:12:28.824Z,1.60
2023-08-29T12:14:56.664Z,1.87
2023-08-29T12:17:24.789Z,2.00
2023-08-29T12:19:52.101Z,2.87
2023-08-29T12:22:30.061Z,2.13
2023-08-29T12:24:59.553Z,1.87
2023-08-29T12:27:26.804Z,2.03
2023-08-29T12:29:54.938Z,2.00
2023-08-29T12:32:26.584Z,2.03
2023-08-29T12:34:53.877Z,2.10
2023-08-29T12:37:21.134Z,1.70
2023-08-29T12:39:48.497Z,1.77
2023-08-29T12:42:15.777Z,1.67
2023-08-29T12:44:43.265Z,1.70
2023-08-29T12:47:10.515Z,1.63
2023-08-29T12:49:37.707Z,1.60
2023-08-29T12:52:05.399Z,2.17
2023-08-29T12:54:34.710Z,2.50
2023-08-29T12:57:02.284Z,2.17
2023-08-29T12:59:29.772Z,2.10
2023-08-29T13:01:56.985Z,2.70
2023-08-29T13:04:24.257Z,2.40
2023-08-29T13:06:51.460Z,2.60
2023-08-29T13:09:34.907Z,1.80
2023-08-29T13:12:04.529Z,2.00
2023-08-29T13:14:37.796Z,1.93
2023-08-29T13:17:06.680Z,1.70
2023-08-29T13:19:34.530Z,1.60
2023-08-29T13:22:04.758Z,1.60
2023-08-29T13:24:32.472Z,3.30
2023-08-29T13:26:59.844Z,1.90
2023-08-29T13:29:27.730Z,1.50
2023-08-29T13:31:54.940Z,1.50
2023-08-29T13:34:21.858Z,1.30
2023-08-29T13:36:49.508Z,1.20
2023-08-29T13:39:16.427Z,1.90
2023-08-29T13:41:45.170Z,1.07
2023-08-29T13:44:12.690Z,1.57
2023-08-29T13:46:41.473Z,1.40
2023-08-29T13:49:10.299Z,1.13
2023-08-29T13:51:37.487Z,1.10
2023-08-29T13:54:05.519Z,1.07
2023-08-29T13:56:32.765Z,1.20
2023-08-29T13:59:03.890Z,1.40
2023-08-29T14:01:31.809Z,0.93
2023-08-29T14:03:59.190Z,1.17
2023-08-29T14:06:26.459Z,1.17
2023-08-29T14:08:53.785Z,1.30
2023-08-29T14:11:21.088Z,1.20
2023-08-29T14:14:07.057Z,1.30
2023-08-29T14:16:34.315Z,0.90
2023-08-29T14:19:01.521Z,1.33
2023-08-29T14:21:28.733Z,1.13
2023-08-29T14:23:56.037Z,1.57
2023-08-29T14:26:23.272Z,3.10
2023-08-29T14:28:50.537Z,1.00
2023-08-29T14:31:22.855Z,1.50
2023-08-29T14:33:49.780Z,1.30
2023-08-29T14:36:16.611Z,1.30
2023-08-29T14:38:43.665Z,1.40
2023-08-29T14:41:11.485Z,1.73
2023-08-29T14:43:38.966Z,1.97
2023-08-29T14:46:06.683Z,2.10
2023-08-29T14:48:36.346Z,1.57
2023-08-29T14:51:03.768Z,1.70
2023-08-29T14:53:30.666Z,1.33
2023-08-29T14:55:58.122Z,1.60
2023-08-29T14:58:25.730Z,2.10
2023-08-29T15:00:53.360Z,1.60
2023-08-29T15:03:20.644Z,1.70
2023-08-29T15:05:47.992Z,1.53
2023-08-29T15:08:15.245Z,1.40
2023-08-29T15:10:42.499Z,1.80
2023-08-29T15:13:09.813Z,1.60
2023-08-29T15:15:41.046Z,1.70
2023-08-29T15:18:09.506Z,2.07
2023-08-29T15:20:39.671Z,1.60
2023-08-29T15:23:07.526Z,1.60
2023-08-29T15:25:34.770Z,1.50
2023-08-29T15:28:01.963Z,1.60
2023-08-29T15:30:29.247Z,1.40
2023-08-29T15:32:56.732Z,1.73
2023-08-29T15:35:24.035Z,1.40
2023-08-29T15:37:51.445Z,1.53
2023-08-29T15:40:18.893Z,2.97
2023-08-29T15:42:46.249Z,1.93
2023-08-29T15:45:13.481Z,2.37
2023-08-29T15:47:40.720Z,1.43
2023-08-29T15:50:08.239Z,1.60
2023-08-29T15:52:35.485Z,1.47
2023-08-29T15:55:03.052Z,1.60
2023-08-29T15:57:30.487Z,1.80
2023-08-29T15:59:57.774Z,1.57
2023-08-29T16:02:25.201Z,1.97
2023-08-29T16:04:53.767Z,1.90
2023-08-29T16:07:21.063Z,2.37
2023-08-29T16:09:48.579Z,1.47
2023-08-29T16:12:15.828Z,2.27
2023-08-29T16:14:43.178Z,1.63
2023-08-29T16:17:10.601Z,1.60
2023-08-29T16:19:37.829Z,2.30
2023-08-29T16:22:05.175Z,2.20
2023-08-29T16:24:32.706Z,2.63
2023-08-29T16:26:59.982Z,3.57
2023-08-29T16:29:27.354Z,2.80
2023-08-29T16:31:54.892Z,2.90
2023-08-29T16:34:22.821Z,4.40
2023-08-29T16:36:50.079Z,5.27
2023-08-29T16:39:17.372Z,3.20
2023-08-29T16:41:45.448Z,2.80
2023-08-29T16:44:12.663Z,2.87
2023-08-29T16:46:40.023Z,3.33
2023-08-29T16:49:07.277Z,3.70
2023-08-29T16:51:34.607Z,4.03
2023-08-29T16:54:03.194Z,2.60
2023-08-29T16:56:31.742Z,2.27
2023-08-29T16:59:00.049Z,2.60
2023-08-29T17:01:27.337Z,2.50
2023-08-29T17:03:54.674Z,2.57
2023-08-29T17:06:21.924Z,3.03
2023-08-29T17:08:49.359Z,2.50
2023-08-29T17:11:16.593Z,3.10
2023-08-29T17:13:43.824Z,2.73
2023-08-29T17:16:11.183Z,3.73
2023-08-29T17:18:38.638Z,2.80
2023-08-29T17:21:06.030Z,3.17
2023-08-29T17:23:33.295Z,2.93
2023-08-29T17:26:00.878Z,5.13
2023-08-29T17:28:28.163Z,2.73
2023-08-29T17:30:55.405Z,2.37
2023-08-29T17:33:22.794Z,4.33
2023-08-29T17:35:50.102Z,3.20
2023-08-29T17:38:17.412Z,4.50
2023-08-29T17:40:44.676Z,2.63
2023-08-29T17:43:11.940Z,2.73
2023-08-29T17:45:44.596Z,2.67
2023-08-29T17:48:12.029Z,2.50
2023-08-29T17:50:39.600Z,2.10
2023-08-29T17:53:12.631Z,2.53
2023-08-29T17:55:49.601Z,3.10
2023-08-29T17:58:16.826Z,2.23
2023-08-29T18:00:45.300Z,2.67
2023-08-29T18:03:12.716Z,3.37
2023-08-29T18:05:46.378Z,2.10
2023-08-29T18:08:13.947Z,2.20
2023-08-29T18:10:41.190Z,2.93
2023-08-29T18:13:08.471Z,2.90
2023-08-29T18:15:36.920Z,3.27
2023-08-29T18:18:20.474Z,2.00
2023-08-29T18:20:48.377Z,2.77
2023-08-29T18:23:15.571Z,3.43
2023-08-29T18:25:42.966Z,2.60
2023-08-29T18:28:10.244Z,3.00
2023-08-29T18:30:37.799Z,2.93
2023-08-29T18:33:08.595Z,2.63
2023-08-29T18:35:37.063Z,3.20
2023-08-29T18:38:04.735Z,3.00
2023-08-29T18:40:31.949Z,2.63
2023-08-29T18:42:59.378Z,2.67
2023-08-29T18:45:27.307Z,2.77
2023-08-29T18:47:54.759Z,4.67
2023-08-29T18:50:22.087Z,3.03
2023-08-29T18:52:50.382Z,3.00
2023-08-29T18:55:17.887Z,2.77
2023-08-29T18:57:46.147Z,3.70
2023-08-29T19:00:14.064Z,2.47
2023-08-29T19:02:41.688Z,3.23
2023-08-29T19:05:10.054Z,2.60
2023-08-29T19:07:37.923Z,2.87
2023-08-29T19:10:05.950Z,2.90
2023-08-29T19:12:33.701Z,2.77
2023-08-29T19:15:02.628Z,3.33
2023-08-29T19:17:32.872Z,3.13
2023-08-29T19:20:00.202Z,3.00
2023-08-29T19:22:27.465Z,2.80
2023-08-29T19:24:55.544Z,3.30
2023-08-29T19:27:27.194Z,3.23
2023-08-29T19:29:56.386Z,3.67
2023-08-29T19:32:23.693Z,4.00
2023-08-29T19:34:51.311Z,3.73
2023-08-29T19:37:18.564Z,3.00
2023-08-29T19:39:46.331Z,3.40
2023-08-29T19:42:13.585Z,4.07
2023-08-29T19:44:40.890Z,3.13
2023-08-29T19:47:08.231Z,3.30
2023-08-29T19:49:39.560Z,3.60
2023-08-29T19:52:07.251Z,5.83
2023-08-29T19:54:34.722Z,6.93
2023-08-29T19:57:02.092Z,3.10
2023-08-29T19:59:29.459Z,3.47
2023-08-29T20:01:56.745Z,3.50
2023-08-29T20:04:24.000Z,3.27
2023-08-29T20:06:51.259Z,3.00
2023-08-29T20:09:18.563Z,3.00
2023-08-29T20:11:46.494Z,3.33
2023-08-29T20:14:14.186Z,3.50
2023-08-29T20:16:41.509Z,3.70
2023-08-29T20:19:08.827Z,4.17
2023-08-29T20:21:36.045Z,3.90
2023-08-29T20:24:03.438Z,3.57
2023-08-29T20:26:32.011Z,3.53
2023-08-29T20:29:01.015Z,4.27
2023-08-29T20:31:28.695Z,3.70
2023-08-29T20:33:55.893Z,3.83
2023-08-29T20:36:23.263Z,4.23
2023-08-29T20:38:50.643Z,3.70
2023-08-29T20:41:17.925Z,4.20
2023-08-29T20:43:45.175Z,5.10
2023-08-29T20:46:12.536Z,4.30
2023-08-29T20:48:39.908Z,4.03
2023-08-29T20:51:07.114Z,4.83
2023-08-29T20:53:35.669Z,3.53
2023-08-29T20:56:03.436Z,3.93
2023-08-29T20:58:30.770Z,4.07
2023-08-29T21:00:58.893Z,3.57
2023-08-29T21:03:26.795Z,3.40
2023-08-29T21:05:54.112Z,4.33
2023-08-29T21:08:21.600Z,4.27
2023-08-29T21:10:49.449Z,3.20
2023-08-29T21:13:17.954Z,3.10
2023-08-29T21:15:45.947Z,3.27
2023-08-29T21:18:16.994Z,4.17
2023-08-29T21:20:57.313Z,2.90
2023-08-29T21:23:24.963Z,3.27
2023-08-29T21:25:52.516Z,2.80
2023-08-29T21:28:21.136Z,3.10
2023-08-29T21:30:48.842Z,3.10
2023-08-29T21:33:16.506Z,3.03
2023-08-29T21:35:44.514Z,3.00
2023-08-29T21:38:12.720Z,2.43
2023-08-29T21:40:40.932Z,3.50
2023-08-29T21:43:24.973Z,2.27
2023-08-29T21:45:53.626Z,2.47
2023-08-29T21:48:20.962Z,3.07
2023-08-29T21:50:48.280Z,3.37
2023-08-29T21:53:16.084Z,2.60
2023-08-29T21:55:44.209Z,2.27
2023-08-29T21:58:12.014Z,2.43
2023-08-29T22:00:39.738Z,2.50
2023-08-29T22:03:07.364Z,2.20
2023-08-29T22:05:34.812Z,2.57
2023-08-29T22:08:02.202Z,3.40
2023-08-29T22:10:29.478Z,3.47
2023-08-29T22:12:56.718Z,3.10
2023-08-29T22:15:23.987Z,3.00
2023-08-29T22:17:51.508Z,3.03
2023-08-29T22:20:18.917Z,2.97
2023-08-29T22:22:46.160Z,2.37
2023-08-29T22:25:13.517Z,2.90
2023-08-29T22:27:41.020Z,2.30
2023-08-29T22:30:08.932Z,2.67
2023-08-29T22:32:36.274Z,2.50
2023-08-29T22:35:05.569Z,2.50
2023-08-29T22:37:33.969Z,2.63
2023-08-29T22:40:01.467Z,3.17
2023-08-29T22:42:28.729Z,2.77
2023-08-29T22:44:55.970Z,2.57
2023-08-29T22:47:23.197Z,2.90
2023-08-29T22:49:50.512Z,3.50
2023-08-29T22:52:18.774Z,3.20
2023-08-29T22:54:46.609Z,2.90
2023-08-29T22:57:13.844Z,4.23
2023-08-29T22:59:41.076Z,3.03
2023-08-29T23:02:08.673Z,3.73
2023-08-29T23:04:35.922Z,3.03
2023-08-29T23:07:03.875Z,2.50
2023-08-29T23:09:32.488Z,3.97
2023-08-29T23:11:59.746Z,2.70
2023-08-29T23:14:27.715Z,2.30
2023-08-29T23:16:55.033Z,2.37
2023-08-29T23:19:24.659Z,4.23
2023-08-29T23:21:52.279Z,2.60
2023-08-29T23:24:19.584Z,2.50
2023-08-29T23:26:46.890Z,2.93
2023-08-29T23:29:14.441Z,3.93
2023-08-29T23:31:41.696Z,2.70
2023-08-29T23:34:09.045Z,2.50
2023-08-29T23:36:36.283Z,3.07
2023-08-29T23:39:03.939Z,3.00
2023-08-29T23:41:31.195Z,3.07
2023-08-29T23:43:58.460Z,2.80
2023-08-29T23:46:25.654Z,3.47
2023-08-29T23:48:54.875Z,2.80
2023-08-29T23:51:40.727Z,2.73
2023-08-29T23:54:07.979Z,2.03
2023-08-29T23:56:35.287Z,2.57
2023-08-29T23:59:02.548Z,2.37
